• Join FlightAware (Why Join?)
  • Login
  • US Flag 
01:17AM EDT


 

Airport Tracker/Info


-or-


 

Live Flight TrackerFlight Track Log ✈ SWA3608 ✈ 12-Apr-2013 ✈ KMHT - KMDW

Flight Track Log - Related Links

Times and Time Zones

All times are in EDT time to prevent confusion due to time zone crossing. See the SWA3608 flight status page for this flight to view local times or setup timezone preferences in your user account.

Time Position Orientation Groundspeed Altitude Reporting Facility
EDT Latitude Longitude Course Direction KTS MPH feet Rate Location/Type
05:18PM 42.9500 -71.4167 356° North 136 157 1,300  Level KA90
05:18PM 42.9711 -71.4186 356° North 179 206 2,000 1,860 Climbing Boston Center
05:19PM 43.0189 -71.4092 North 215 247 4,100 3,000 Climbing Boston Center
05:20PM 43.0758 -71.4850 316° Northwest 221 254 8,100 3,300 Climbing Boston Center
05:21PM 43.0847 -71.5675 278° West 222 255 10,800 2,700 Climbing Boston Center
05:22PM 43.0919 -71.6981 274° West 289 333 13,500 2,880 Climbing Boston Center
05:23PM 43.0947 -71.8117 272° West 329 379 16,600 2,820 Climbing Boston Center
05:24PM 43.1017 -71.9425 274° West 336 387 19,300 2,640 Climbing Boston Center
05:25PM 43.1064 -72.0761 273° West 350 403 21,900 2,520 Climbing Boston Center
05:26PM 43.1108 -72.2156 273° West 362 417 24,300 2,160 Climbing Boston Center
05:27PM 43.1131 -72.3575 271° West 367 422 26,400 1,800 Climbing Boston Center
05:28PM 43.1089 -72.5056 268° West 373 429 28,000 900 Climbing Boston Center
05:29PM 43.0942 -72.6733 263° West 400 460 28,200 960 Climbing Boston Center
05:30PM 43.0897 -72.8239 268° West 407 468 30,000 900 Climbing Boston Center
05:31PM 43.0869 -72.9775 269° West 407 468 30,000  Level Boston Center
05:32PM 43.0861 -73.1139 270° West 407 468 30,000 660 Level Boston Center
05:33PM 43.0811 -73.2617 267° West 402 463 31,400 1,680 Climbing Boston Center
05:34PM 43.0694 -73.4206 264° West 402 463 33,500 1,860 Climbing Boston Center
05:35PM 43.0639 -73.5656 267° West 397 457 35,100 1,680 Climbing Boston Center
05:36PM 43.0603 -73.7075 268° West 387 445 36,900 1,380 Climbing Boston Center
05:37PM 43.0567 -73.8467 268° West 381 438 38,000 540 Climbing Boston Center
05:38PM 43.0506 -73.9858 267° West 376 433 38,000  Level Boston Center
05:39PM 43.0444 -74.1275 267° West 376 433 38,000  Level Boston Center
05:40PM 43.0400 -74.2694 268° West 376 433 38,000  Level Boston Center
05:41PM 43.0336 -74.4114 267° West 376 433 38,000  Level Boston Center
05:42PM 43.0289 -74.5506 267° West 376 433 38,000  Level Boston Center
05:43PM 43.0219 -74.6950 266° West 376 433 38,000  Level Boston Center
05:44PM 43.0150 -74.8367 266° West 381 438 38,000  Level Boston Center
05:45PM 43.0100 -74.9786 267° West 381 438 38,000  Level Boston Center
05:46PM 43.0003 -75.1203 265° West 381 438 38,000  Level Boston Center
05:47PM 42.9950 -75.2592 267° West 381 438 38,000  Level Boston Center
05:48PM 42.9892 -75.4008 267° West 381 438 38,000  Level Boston Center
05:49PM 42.9814 -75.5394 266° West 375 432 38,000  Level Boston Center
05:50PM 42.9733 -75.6781 266° West 375 432 38,000  Level Boston Center
05:51PM 42.9672 -75.8142 267° West 365 420 38,000  Level Boston Center
05:52PM 42.9589 -75.9528 265° West 365 420 38,000  Level Boston Center
05:54PM 42.9444 -76.1553 265° West 358 412 38,000  Level Cleveland Center
05:55PM 42.9392 -76.2947 267° West 364 419 38,000  Level Cleveland Center
05:56PM 42.9297 -76.4372 265° West 375 432 38,000  Level Cleveland Center
05:57PM 42.9203 -76.5797 265° West 375 432 38,000  Level Cleveland Center
05:58PM 42.9125 -76.7219 266° West 380 437 38,000  Level Cleveland Center
05:59PM 42.9028 -76.8642 265° West 380 437 38,000  Level Cleveland Center
06:00PM 42.8928 -77.0094 265° West 385 443 38,000  Level Cleveland Center
06:01PM 42.8572 -77.1447 250° West 385 443 38,000  Level Cleveland Center
06:02PM 42.8172 -77.2769 248° West 380 437 38,000  Level Cleveland Center
06:03PM 42.7731 -77.4067 245° Southwest 380 437 38,000  Level Cleveland Center
06:04PM 42.7306 -77.5361 246° West 380 437 38,000  Level Cleveland Center
06:05PM 42.6900 -77.6622 246° West 380 437 38,000  Level Cleveland Center
06:06PM 42.6472 -77.7886 245° Southwest 380 437 38,000  Level Cleveland Center
06:07PM 42.5986 -77.9317 245° Southwest 381 438 38,000  Level Cleveland Center
06:08PM 42.5556 -78.0606 246° West 381 438 38,000  Level Cleveland Center
06:09PM 42.5125 -78.1889 246° West 381 438 38,000  Level Cleveland Center
06:10PM 42.4692 -78.3172 245° Southwest 381 438 38,000  Level Cleveland Center
06:11PM 42.4239 -78.4483 245° Southwest 381 438 38,000  Level Cleveland Center
06:13PM 42.3344 -78.7042 245° Southwest 386 444 38,000  Level Cleveland Center
06:14PM 42.2906 -78.8344 246° West 386 444 38,000  Level Cleveland Center
06:15PM 42.2444 -78.9619 244° Southwest 386 444 38,000  Level Cleveland Center
06:16PM 42.2006 -79.0892 245° Southwest 386 444 38,000  Level Cleveland Center
06:17PM 42.1625 -79.2189 248° West 386 444 38,000  Level Cleveland Center
06:18PM 42.1306 -79.3514 252° West 376 433 38,000  Level Cleveland Center
06:19PM 42.0964 -79.4861 251° West 370 426 38,000  Level Cleveland Center
06:20PM 42.0603 -79.6156 249° West 370 426 38,000  Level Cleveland Center
06:21PM 42.0278 -79.7475 252° West 370 426 38,000  Level Cleveland Center
06:22PM 41.9953 -79.8650 250° West 370 426 38,000  Level Cleveland Center
06:23PM 41.9564 -80.0081 250° West 370 426 38,000  Level Cleveland Center
06:24PM 41.9194 -80.1394 249° West 370 426 38,000  Level Cleveland Center
06:25PM 41.8867 -80.2708 252° West 369 425 38,000  Level Cleveland Center
06:26PM 41.8514 -80.4019 250° West 374 430 38,000  Level Cleveland Center
06:27PM 41.8142 -80.5358 250° West 374 430 38,000  Level Cleveland Center
06:28PM 41.7806 -80.6667 251° West 379 436 38,000  Level Cleveland Center
06:29PM 41.7431 -80.8003 249° West 384 442 38,000  Level Cleveland Center
06:30PM 41.7072 -80.9308 250° West 384 442 38,000  Level Cleveland Center
06:31PM 41.6733 -81.0503 249° West 389 448 38,000 300 Level Cleveland Center
06:32PM 41.6456 -81.1889 255° West 389 448 38,600 900 Climbing Cleveland Center
06:33PM 41.6406 -81.3306 267° West 384 442 39,900 660 Climbing Cleveland Center
06:34PM 41.6375 -81.4722 268° West 384 442 40,000  Climbing Cleveland Center
06:35PM 41.6300 -81.6167 266° West 384 442 40,000  Level Cleveland Center
06:36PM 41.6267 -81.7636 268° West 384 442 40,000  Level Cleveland Center
06:37PM 41.6208 -81.9081 267° West 384 442 40,000  Level Cleveland Center
06:38PM 41.6169 -82.0525 268° West 384 442 40,000  Level Cleveland Center
06:39PM 41.6089 -82.1967 266° West 384 442 40,000  Level Cleveland Center
06:40PM 41.6025 -82.3436 267° West 389 448 40,000  Level Cleveland Center
06:42PM 41.5894 -82.6319 267° West 395 455 40,000  Level Cleveland Center
06:43PM 41.5822 -82.7872 266° West 389 448 40,000  Level Cleveland Center
06:44PM 41.5753 -82.9342 266° West 389 448 40,000  Level Cleveland Center
06:45PM 41.5681 -83.0783 266° West 384 442 40,000  Level Cleveland Center
06:46PM 41.5583 -83.2250 265° West 389 448 40,000  Level Cleveland Center
06:47PM 41.5508 -83.3689 266° West 389 448 40,000  Level Cleveland Center
06:48PM 41.5450 -83.5158 267° West 389 448 40,000  Level Cleveland Center
06:49PM 41.5369 -83.6625 266° West 394 453 40,000  Level Cleveland Center
06:50PM 41.5267 -83.8117 265° West 405 466 40,000  Level Cleveland Center
06:51PM 41.5181 -83.9611 266° West 405 466 40,000 -480 Level Cleveland Center
06:52PM 41.5117 -84.1050 267° West 405 466 39,100 -1,860 Descending Cleveland Center
06:54PM 41.4975 -84.3867 266° West 397 457 34,400 -2,160 Descending Chicago Center
06:55PM 41.4881 -84.5261 265° West 383 441 32,400 -2,040 Descending Chicago Center
06:56PM 41.4808 -84.6914 267° West 375 432 30,200 -1,200 Descending Chicago Center
06:57PM 41.4892 -84.8422 274° West 400 460 30,000 -120 Descending Chicago Center
06:58PM 41.4942 -85.0014 272° West 422 486 30,000 -300 Level Chicago Center
06:59PM 41.4992 -85.1528 273° West 415 478 29,500 -1,440 Descending Chicago Center
07:00PM 41.5036 -85.2989 272° West 400 460 27,000 -2,160 Descending Chicago Center
07:01PM 41.5069 -85.4403 272° West 384 442 25,000 -1,500 Descending Chicago Center
07:02PM 41.5133 -85.6122 273° West 382 440 23,900 -1,020 Descending Chicago Center
07:03PM 41.5175 -85.7561 272° West 385 443 22,900 -1,020 Descending Chicago Center
07:04PM 41.5217 -85.8969 272° West 379 436 21,800 -1,740 Descending Chicago Center
07:05PM 41.5242 -86.0331 271° West 369 425 19,400 -3,240 Descending Chicago Center
07:06PM 41.5242 -86.1653 270° West 360 414 15,200 -3,540 Descending Chicago Center
07:07PM 41.5236 -86.2950 270° West 351 404 12,100 -2,520 Descending Chicago Center
07:08PM 41.5225 -86.4192 269° West 337 388 10,000 -1,020 Descending Chicago Center
07:09PM 41.5214 -86.5611 269° West 321 369 10,000  Level Chicago Center
07:10PM 41.5206 -86.6781 269° West 317 365 10,000  Level Chicago Center
07:11PM 41.5194 -86.8058 269° West 314 361 10,000  Level Chicago Center
07:12PM 41.5186 -86.9208 269° West 311 358 10,000 -300 Level Chicago Center
07:13PM 41.5183 -87.0203 270° West 273 314 9,400 -1,020 Descending Chicago Center
07:14PM 41.5175 -87.1117 269° West 251 289 7,900 -1,260 Descending Chicago Center
07:15PM 41.5500 -87.2000 296° West 259 298 7,000 -1,020 Descending Chicago TRACON
07:16PM 41.5667 -87.2833 285° West 250 288 6,000 -1,020 Descending Chicago TRACON
07:18PM 41.6044 -87.3861 296° West 249 287 4,800 -1,080 Descending Chicago Center
07:19PM 41.6283 -87.4647 292° West 241 277 3,700 -840 Descending Chicago Center
07:20PM 41.6508 -87.5397 292° West 231 266 3,100 -420 Descending Chicago Center
07:21PM 41.6733 -87.5989 297° West 207 238 2,900 -60 Descending Chicago Center
07:21PM 41.7000 -87.6333 316° Northwest 162 186 3,000 -420 Climbing Chicago TRACON
07:22PM 41.7333 -87.6833 312° West 140 161 2,200 -840 Descending Chicago TRACON
07:23PM 41.7500 -87.7167 304° West 121 139 1,400 -840 Descending Chicago TRACON